Time,TemperatureF,DewpointF,PressureIn,WindDirection,WindDirectionDegrees,WindSpeedMPH,WindSpeedGustMPH,Humidity,HourlyPrecipIn,Conditions,Clouds,dailyrainin,SoftwareType,DateUTC
2013-04-05 04:21:00,41.0,23.0,29.95,South,187,0.0,0.0,49,0.00,,,0.00,,2013-04-05 08:21:00,
2013-04-05 04:52:00,41.0,23.0,29.95,South,187,0.0,0.0,49,0.00,,,0.00,,2013-04-05 08:52:00,
2013-04-05 05:02:00,41.0,23.0,29.95,South,187,0.0,0.0,49,0.00,,,0.00,,2013-04-05 09:02:00,
2013-04-05 05:12:00,41.0,23.0,29.95,South,187,0.0,0.0,49,0.00,,,0.00,,2013-04-05 09:12:00,
2013-04-05 08:32:00,39.0,30.0,29.98,SW,228,0.0,0.0,70,0.00,,,0.00,,2013-04-05 12:32:00,
2013-04-05 08:42:00,39.0,30.0,29.98,SW,228,0.0,0.0,70,0.00,,,0.00,,2013-04-05 12:42:00,
2013-04-05 08:53:00,40.0,32.0,29.98,SE,124,0.0,0.0,72,0.00,,,0.00,,2013-04-05 12:53:00,
2013-04-05 09:02:00,40.0,32.0,29.98,SE,124,0.0,0.0,72,0.00,,,0.00,,2013-04-05 13:02:00,
2013-04-05 09:12:00,40.0,32.0,29.98,SE,124,0.0,0.0,72,0.00,,,0.00,,2013-04-05 13:12:00,
2013-04-05 09:23:00,40.0,32.0,29.98,SE,124,0.0,0.0,72,0.00,,,0.00,,2013-04-05 13:23:00,
2013-04-05 09:32:00,43.0,33.0,29.98,SSW,194,0.0,0.0,68,0.00,,,0.00,,2013-04-05 13:32:00,
2013-04-05 09:43:00,43.0,33.0,29.98,SSW,194,0.0,0.0,68,0.00,,,0.00,,2013-04-05 13:43:00,
2013-04-05 09:53:00,44.0,31.0,29.98,WSW,245,0.0,0.0,60,0.00,,,0.00,,2013-04-05 13:53:00,
2013-04-05 10:03:00,44.0,31.0,29.98,WSW,245,0.0,0.0,60,0.00,,,0.00,,2013-04-05 14:03:00,
2013-04-05 10:12:00,44.0,31.0,29.98,WSW,245,0.0,0.0,60,0.00,,,0.00,,2013-04-05 14:12:00,
2013-04-05 10:23:00,44.0,31.0,29.98,WSW,245,0.0,0.0,60,0.00,,,0.00,,2013-04-05 14:23:00,
2013-04-05 11:02:00,49.0,29.0,29.98,NW,318,3.0,0.0,46,0.00,,,0.00,,2013-04-05 15:02:00,
2013-04-05 11:13:00,49.0,29.0,29.98,NW,318,3.0,0.0,46,0.00,,,0.00,,2013-04-05 15:13:00,
2013-04-05 11:23:00,50.0,29.0,29.98,NW,314,4.0,4.0,44,0.00,,,0.00,,2013-04-05 15:23:00,
2013-04-05 11:33:00,50.0,29.0,29.98,NW,314,4.0,4.0,44,0.00,,,0.00,,2013-04-05 15:33:00,
2013-04-05 11:43:00,50.0,29.0,29.98,NW,314,4.0,4.0,44,0.00,,,0.00,,2013-04-05 15:43:00,
2013-04-05 11:54:00,51.0,30.0,29.98,NW,321,1.0,0.0,44,0.00,,,0.00,,2013-04-05 15:54:00,
2013-04-05 12:03:00,51.0,26.0,29.98,WSW,249,2.0,0.0,38,0.00,,,0.00,,2013-04-05 16:03:00,
2013-04-05 12:14:00,51.0,26.0,29.98,WSW,249,2.0,0.0,38,0.00,,,0.00,,2013-04-05 16:14:00,
2013-04-05 12:23:00,51.0,28.0,29.98,WSW,249,0.0,0.0,40,0.00,,,0.00,,2013-04-05 16:23:00,
2013-04-05 12:33:00,51.0,28.0,29.98,WSW,249,0.0,0.0,40,0.00,,,0.00,,2013-04-05 16:33:00,
2013-04-05 12:42:00,51.0,28.0,29.98,WSW,249,0.0,0.0,40,0.00,,,0.00,,2013-04-05 16:42:00,
2013-04-05 12:52:00,51.0,28.0,29.98,WSW,249,0.0,0.0,40,0.00,,,0.00,,2013-04-05 16:52:00,
2013-04-05 13:04:00,55.0,29.0,29.97,NNW,343,7.0,7.0,37,0.00,,,0.00,,2013-04-05 17:04:00,
2013-04-05 13:13:00,55.0,29.0,29.97,NNW,343,7.0,7.0,37,0.00,,,0.00,,2013-04-05 17:13:00,
2013-04-05 13:23:00,55.0,29.0,29.96,WNW,287,2.0,0.0,37,0.00,,,0.00,,2013-04-05 17:23:00,
2013-04-05 13:33:00,55.0,29.0,29.96,WNW,302,7.0,7.0,36,0.00,,,0.00,,2013-04-05 17:33:00,
2013-04-05 13:45:00,55.0,29.0,29.96,WNW,302,7.0,7.0,36,0.00,,,0.00,,2013-04-05 17:45:00,
2013-04-05 13:52:00,55.0,29.0,29.96,WNW,302,7.0,7.0,36,0.00,,,0.00,,2013-04-05 17:52:00,
2013-04-05 14:02:00,55.0,29.0,29.96,WNW,302,7.0,7.0,36,0.00,,,0.00,,2013-04-05 18:02:00,
2013-04-05 16:22:00,57.0,30.0,29.94,North,357,2.0,0.0,35,0.00,,,0.00,,2013-04-05 20:22:00,
2013-04-05 16:33:00,57.0,30.0,29.94,North,357,2.0,0.0,35,0.00,,,0.00,,2013-04-05 20:33:00,
2013-04-05 19:53:00,50.0,27.0,30.01,NNE,20,4.0,6.0,40,0.00,,,0.00,,2013-04-05 23:53:00,
2013-04-05 20:03:00,49.0,27.0,30.02,North,3,2.0,0.0,42,0.00,,,0.00,,2013-04-06 00:03:00,
2013-04-05 20:13:00,49.0,27.0,30.02,North,3,2.0,0.0,42,0.00,,,0.00,,2013-04-06 00:13:00,
2013-04-05 20:23:00,47.0,26.0,30.03,NNW,342,4.0,0.0,43,0.00,,,0.00,,2013-04-06 00:23:00,
2013-04-05 20:33:00,47.0,26.0,30.04,NNW,332,0.0,5.0,43,0.00,,,0.00,,2013-04-06 00:33:00,
2013-04-05 20:42:00,47.0,26.0,30.04,NNW,332,0.0,5.0,43,0.00,,,0.00,,2013-04-06 00:42:00,
2013-04-05 20:52:00,47.0,26.0,30.04,NNW,332,0.0,5.0,43,0.00,,,0.00,,2013-04-06 00:52:00,
2013-04-05 21:02:00,45.0,25.0,30.07,NW,305,0.0,0.0,45,0.00,,,0.00,,2013-04-06 01:02:00,
2013-04-05 21:13:00,45.0,25.0,30.07,NW,305,0.0,0.0,45,0.00,,,0.00,,2013-04-06 01:13:00,
2013-04-05 21:23:00,45.0,25.0,30.07,NW,305,0.0,0.0,45,0.00,,,0.00,,2013-04-06 01:23:00,
2013-04-05 21:33:00,45.0,25.0,30.07,NW,305,0.0,0.0,45,0.00,,,0.00,,2013-04-06 01:33:00,
2013-04-05 21:43:00,45.0,25.0,30.07,NW,305,0.0,0.0,45,0.00,,,0.00,,2013-04-06 01:43:00,
2013-04-05 21:52:00,42.0,24.0,30.11,NNE,31,11.0,11.0,48,0.00,,,0.00,,2013-04-06 01:52:00,
2013-04-05 21:53:00,43.0,25.0,30.10,North,6,5.0,0.0,48,0.00,,,0.00,,2013-04-06 01:53:00,
2013-04-05 22:03:00,43.0,25.0,30.10,North,6,5.0,0.0,48,0.00,,,0.00,,2013-04-06 02:03:00,
2013-04-05 22:12:00,43.0,25.0,30.10,North,6,5.0,0.0,48,0.00,,,0.00,,2013-04-06 02:12:00,
2013-04-05 22:23:00,42.0,24.0,30.11,NNE,31,11.0,11.0,48,0.00,,,0.00,,2013-04-06 02:23:00,
2013-04-05 22:32:00,42.0,24.0,30.11,NNE,31,11.0,11.0,48,0.00,,,0.00,,2013-04-06 02:32:00,
2013-04-05 22:42:00,42.0,24.0,30.11,NNE,31,11.0,11.0,48,0.00,,,0.00,,2013-04-06 02:42:00,
2013-04-05 23:00:00,39.0,23.0,30.14,NNW,347,0.0,0.0,53,0.00,,,0.00,,2013-04-06 03:00:00,
2013-04-05 23:23:00,39.0,23.0,30.14,NNW,347,0.0,0.0,53,0.00,,,0.00,,2013-04-06 03:23:00,
2013-04-05 23:34:00,39.0,23.0,30.14,NNW,347,0.0,0.0,53,0.00,,,0.00,,2013-04-06 03:34:00,
2013-04-05 23:43:00,39.0,23.0,30.14,NNW,347,0.0,0.0,53,0.00,,,0.00,,2013-04-06 03:43:00,